SARL/AOL METAR and TAF weather

Enter ICAO airport designator
Station Type Date Time Source
SARL METAR 2019/06/26 18:00 UTC NOAA

SARL 261800Z 09002KT CAVOK 14/M02 Q1018


Station Type Date Time Source
SARL Decoded METAR 2019/06/26 18:00 UTC NOAA

Paso De Los Libres Aerodrome, Argentina (SARL) 29-41S 057-09W 70M
Jun 26, 2019 - 02:00 PM EDT / 2019.06.26 1800 UTC
Wind: from the E (090 degrees) at 2 MPH (2 KT):0
Visibility: greater than 7 mile(s):0
Temperature: 57 F (14 C)
Dew Point: 28 F (-2 C)
Relative Humidity: 33%
Pressure (altimeter): 30.06 in. Hg (1018 hPa)
ob: SARL 261800Z 09002KT CAVOK 14/M02 Q1018
cycle: 18

Station Type Date Time Source
SARL TAF UTC NOAA

Error!

Example: see airport list